International Virtual Aviation Organisation

Russian Federation and Kazakhstan MCD

 

Карточка аэропорта UEEE

Внимание!
Информация на этой странице в стадии наполнения.
Если вы не увидели какой-то информации, или заметили неточность - пожалуйста сообщите нам!
Спасибо!
Команда RU-STAFF
Название аэропортаЯкутск
Название аэропорта (англ.)Yakutsk
Превышение325 ft. (99.1 m.)
Координаты62°5.5920000000002', 129°46.259999999999'
Высота перехода1000m
Эшелон переходаFL050
Коды ответчика3220-3237
Зона ОрВДЯкутск РПИ (UEEE)
Данные METARUEEE 191530Z 09003MPS 9999 -SHRA BKN040CB 13/12 Q1016 R23L/150055 NOSIG RMK QFE753
Проноз погоды (TAF)UEEE 191400Z 1915/2021 10003G08MPS 9999 BKN015CB OVC070 TEMPO 1915/2003 VRB01MPS 0300 SHRA FG VV002
NOTAMshow/hide NOTAM
AWOS   TABLE

Информация о ВПП

ВПП Длина ВПП (м.) Покрытие Курс ВПП Частота ILS
05R3400Асфальтобетон52 
23L3400Асфальтобетон232111.7

Диспетчерские позиции

Позывной Наименование органа УВД Частота
UEEE_APPЯкутск-Подход129.3
UEEE_R_APPЯкутск-Круг120.3
UEEE_TWRЯкутск-Старт120.0
UEEE_GNDЯкутск-Руление121.7



Спутниковое изображение